createdAt,value
2023-01-08T00:02:46.085Z,7.46
2023-01-08T00:07:49.664Z,7.59
2023-01-08T00:12:53.232Z,7.53
2023-01-08T00:17:58.111Z,7.43
2023-01-08T00:23:01.170Z,7.62
2023-01-08T00:28:04.233Z,7.74
2023-01-08T00:33:08.848Z,7.87
2023-01-08T00:38:12.508Z,7.89
2023-01-08T00:43:15.590Z,7.85
2023-01-08T00:48:20.241Z,7.64
2023-01-08T00:53:24.063Z,7.51
2023-01-08T00:58:27.130Z,7.30
2023-01-08T01:03:32.174Z,7.18
2023-01-08T01:08:35.769Z,7.27
2023-01-08T01:13:38.867Z,7.13
2023-01-08T01:18:43.457Z,7.07
2023-01-08T01:23:46.613Z,7.00
2023-01-08T01:28:50.922Z,6.89
2023-01-08T01:33:55.537Z,6.95
2023-01-08T01:38:59.169Z,7.06
2023-01-08T01:44:42.155Z,6.93
2023-01-08T01:49:54.300Z,6.83
2023-01-08T01:54:59.294Z,6.87
2023-01-08T02:00:05.670Z,6.85
2023-01-08T02:05:16.388Z,6.83
2023-01-08T02:10:26.801Z,6.82
2023-01-08T02:15:39.886Z,6.70
2023-01-08T02:20:48.574Z,6.74
2023-01-08T02:26:14.126Z,6.74
2023-01-08T02:31:18.782Z,6.70
2023-01-08T02:36:38.913Z,6.80
2023-01-08T02:41:53.774Z,6.77
2023-01-08T02:46:59.620Z,6.85
2023-01-08T02:52:06.920Z,6.94
2023-01-08T02:57:14.482Z,6.85
2023-01-08T03:02:18.347Z,7.05
2023-01-08T03:07:22.167Z,7.18
2023-01-08T03:12:36.387Z,7.14
2023-01-08T03:17:43.230Z,7.23
2023-01-08T03:22:49.869Z,7.15
2023-01-08T03:28:00.525Z,7.12
2023-01-08T03:33:05.656Z,7.21
2023-01-08T03:38:16.353Z,7.19
2023-01-08T03:43:21.033Z,7.13
2023-01-08T03:48:26.209Z,7.22
2023-01-08T03:53:29.852Z,7.44
2023-01-08T03:58:34.497Z,7.51
2023-01-08T04:03:37.716Z,7.46
2023-01-08T04:08:40.944Z,7.55
2023-01-08T04:13:45.563Z,7.54
2023-01-08T04:18:48.778Z,7.34
2023-01-08T04:23:51.844Z,7.43
2023-01-08T04:28:56.522Z,7.44
2023-01-08T04:33:59.969Z,7.38
2023-01-08T04:39:03.301Z,7.22
2023-01-08T04:44:08.009Z,7.44
2023-01-08T04:49:11.848Z,7.08
2023-01-08T04:54:15.125Z,7.23
2023-01-08T04:59:19.972Z,7.05
2023-01-08T05:04:23.158Z,7.08
2023-01-08T05:09:26.583Z,7.16
2023-01-08T05:14:31.318Z,7.17
2023-01-08T05:19:34.809Z,6.93
2023-01-08T05:24:37.897Z,7.05
2023-01-08T05:29:42.453Z,7.03
2023-01-08T05:34:46.122Z,7.04
2023-01-08T05:39:49.329Z,6.98
2023-01-08T05:44:53.800Z,6.97
2023-01-08T05:49:57.090Z,7.03
2023-01-08T05:55:00.615Z,7.18
2023-01-08T06:00:06.122Z,7.05
2023-01-08T06:05:14.903Z,7.15
2023-01-08T06:10:18.239Z,7.20
2023-01-08T06:15:22.816Z,7.23
2023-01-08T06:20:26.094Z,7.21
2023-01-08T06:25:29.945Z,7.11
2023-01-08T06:30:34.559Z,7.15
2023-01-08T06:35:37.785Z,7.24
2023-01-08T06:40:41.068Z,7.12
2023-01-08T06:45:45.709Z,7.07
2023-01-08T06:50:48.766Z,7.10
2023-01-08T06:55:56.984Z,7.03
2023-01-08T07:01:01.826Z,7.02
2023-01-08T07:06:05.478Z,7.03
2023-01-08T07:11:08.690Z,7.06
2023-01-08T07:16:15.585Z,7.00
2023-01-08T07:21:21.006Z,7.00
2023-01-08T07:26:24.285Z,6.80
2023-01-08T07:31:29.116Z,6.82
2023-01-08T07:36:32.488Z,6.92
2023-01-08T07:41:35.636Z,6.95
2023-01-08T07:46:40.515Z,6.98
2023-01-08T07:51:43.714Z,7.08
2023-01-08T07:56:47.482Z,7.08
2023-01-08T08:01:52.232Z,7.15
2023-01-08T08:06:56.307Z,7.30
2023-01-08T08:11:59.723Z,7.16
2023-01-08T08:17:04.278Z,6.93
2023-01-08T08:22:07.617Z,6.68
2023-01-08T08:27:10.746Z,6.75
2023-01-08T08:32:15.237Z,7.04
2023-01-08T08:37:18.445Z,6.89
2023-01-08T08:42:21.712Z,6.98
2023-01-08T08:47:26.358Z,6.98
2023-01-08T08:52:31.059Z,7.09
2023-01-08T08:57:34.164Z,6.98
2023-01-08T09:02:38.867Z,7.25
2023-01-08T09:07:42.111Z,7.24
2023-01-08T09:12:45.395Z,7.21
2023-01-08T09:17:55.642Z,7.45
2023-01-08T09:23:00.206Z,7.47
2023-01-08T09:28:05.284Z,7.65
2023-01-08T09:33:11.319Z,7.69
2023-01-08T09:38:14.654Z,7.65
2023-01-08T09:43:20.992Z,7.64
2023-01-08T09:48:29.196Z,7.97
2023-01-08T09:53:34.432Z,7.91
2023-01-08T09:58:40.495Z,8.23
2023-01-08T10:03:48.853Z,8.01
2023-01-08T10:08:53.199Z,8.05
2023-01-08T10:13:58.310Z,8.17
2023-01-08T10:19:04.258Z,7.97
2023-01-08T10:24:08.254Z,7.98
2023-01-08T10:29:14.736Z,8.25
2023-01-08T10:34:33.845Z,8.24
2023-01-08T10:39:37.900Z,8.30
2023-01-08T10:44:47.542Z,8.29
2023-01-08T10:49:52.353Z,8.37
2023-01-08T10:54:56.017Z,8.43
2023-01-08T10:59:59.655Z,8.38
2023-01-08T11:05:07.595Z,8.59
2023-01-08T11:10:24.126Z,8.38
2023-01-08T11:15:31.809Z,8.49
2023-01-08T11:20:36.755Z,8.58
2023-01-08T11:25:41.961Z,8.63
2023-01-08T11:30:51.253Z,8.50
2023-01-08T11:36:03.548Z,8.57
2023-01-08T11:41:22.556Z,8.78
2023-01-08T11:46:38.840Z,8.74
2023-01-08T11:51:59.937Z,8.88
2023-01-08T11:57:18.709Z,8.64
2023-01-08T12:02:32.157Z,8.85
2023-01-08T12:07:50.016Z,8.72
2023-01-08T12:13:06.935Z,8.88
2023-01-08T12:18:27.319Z,8.83
2023-01-08T12:23:46.424Z,8.41
2023-01-08T12:29:19.020Z,8.71
2023-01-08T12:34:34.270Z,8.65
2023-01-08T12:39:51.522Z,8.83
2023-01-08T12:44:58.443Z,8.87
2023-01-08T12:50:17.407Z,8.62
2023-01-08T12:55:33.997Z,8.67
2023-01-08T13:00:42.151Z,8.71
2023-01-08T13:05:45.952Z,8.40
2023-01-08T13:10:55.030Z,8.68
2023-01-08T13:16:21.281Z,8.35
2023-01-08T13:21:39.824Z,8.36
2023-01-08T13:26:44.566Z,8.81
2023-01-08T13:31:48.142Z,8.75
2023-01-08T13:36:58.680Z,8.47
2023-01-08T13:42:15.255Z,8.07
2023-01-08T13:47:23.763Z,8.48
2023-01-08T13:52:32.852Z,8.24
2023-01-08T13:57:41.922Z,8.24
2023-01-08T14:02:50.478Z,8.27
2023-01-08T14:07:54.402Z,8.42
2023-01-08T14:13:07.355Z,8.55
2023-01-08T14:18:13.365Z,8.31
2023-01-08T14:23:23.264Z,8.47
2023-01-08T14:28:27.940Z,8.07
2023-01-08T14:33:34.627Z,8.47
2023-01-08T14:38:37.856Z,8.07
2023-01-08T14:43:45.551Z,8.58
2023-01-08T14:48:49.817Z,8.51
2023-01-08T14:53:55.541Z,8.49
2023-01-08T14:59:01.394Z,8.36
2023-01-08T15:04:14.701Z,8.33
2023-01-08T15:09:23.071Z,8.12
2023-01-08T15:14:30.949Z,8.20
2023-01-08T15:19:40.801Z,8.09
2023-01-08T15:24:44.823Z,8.08
2023-01-08T15:29:51.860Z,7.89
2023-01-08T15:34:55.023Z,7.99
2023-01-08T15:39:58.366Z,7.97
2023-01-08T15:45:03.179Z,8.16
2023-01-08T15:50:07.641Z,8.14
2023-01-08T15:55:17.253Z,8.12
2023-01-08T16:00:22.965Z,7.98
2023-01-08T16:05:27.448Z,7.92
2023-01-08T16:10:30.765Z,7.85
2023-01-08T16:15:35.521Z,7.87
2023-01-08T16:20:40.366Z,7.88
2023-01-08T16:25:43.622Z,7.87
2023-01-08T16:30:48.204Z,7.80
2023-01-08T16:35:58.143Z,7.73
2023-01-08T16:41:01.928Z,7.79
2023-01-08T16:46:13.719Z,7.80
2023-01-08T16:51:16.987Z,7.76
2023-01-08T16:56:20.518Z,7.87
2023-01-08T17:01:25.087Z,7.89
2023-01-08T17:06:28.438Z,7.93
2023-01-08T17:11:32.281Z,7.80
2023-01-08T17:16:37.078Z,7.88
2023-01-08T17:21:40.769Z,7.76
2023-01-08T17:26:44.105Z,7.84
2023-01-08T17:31:48.875Z,7.93
2023-01-08T17:36:52.302Z,7.86
2023-01-08T17:42:12.819Z,7.82
2023-01-08T17:47:19.731Z,7.94
2023-01-08T17:52:23.993Z,7.97
2023-01-08T17:57:31.476Z,8.05
2023-01-08T18:02:36.345Z,7.90
2023-01-08T18:07:39.809Z,7.86
2023-01-08T18:12:42.881Z,7.89
2023-01-08T18:17:48.274Z,7.97
2023-01-08T18:22:51.529Z,7.98
2023-01-08T18:27:55.792Z,8.04
2023-01-08T18:33:00.238Z,8.00
2023-01-08T18:38:03.385Z,7.81
2023-01-08T18:43:07.318Z,7.85
2023-01-08T18:48:11.836Z,7.71
2023-01-08T18:53:14.971Z,7.72
2023-01-08T18:58:18.088Z,7.56
2023-01-08T19:03:22.926Z,7.73
2023-01-08T19:08:26.145Z,7.78
2023-01-08T19:13:29.238Z,7.60
2023-01-08T19:18:34.223Z,7.78
2023-01-08T19:23:37.887Z,7.81
2023-01-08T19:28:41.435Z,7.62
2023-01-08T19:33:47.196Z,7.72
2023-01-08T19:38:50.520Z,7.67
2023-01-08T19:43:54.098Z,7.59
2023-01-08T19:49:01.027Z,7.41
2023-01-08T19:54:06.980Z,7.61
2023-01-08T19:59:12.660Z,7.65
2023-01-08T20:04:18.087Z,7.56
2023-01-08T20:09:22.759Z,7.47
2023-01-08T20:14:26.277Z,7.22
2023-01-08T20:19:31.196Z,7.32
2023-01-08T20:24:34.340Z,7.35
2023-01-08T20:29:37.701Z,7.59
2023-01-08T20:34:42.263Z,7.24
2023-01-08T20:39:46.250Z,7.48
2023-01-08T20:44:49.444Z,7.60
2023-01-08T20:49:57.185Z,7.62
2023-01-08T20:55:02.012Z,7.75
2023-01-08T21:00:06.371Z,7.94
2023-01-08T21:05:11.319Z,7.69
2023-01-08T21:10:15.068Z,7.75
2023-01-08T21:15:21.836Z,7.77
2023-01-08T21:20:26.997Z,7.65
2023-01-08T21:25:33.375Z,7.51
2023-01-08T21:30:36.724Z,7.34
2023-01-08T21:35:41.326Z,7.23
2023-01-08T21:40:45.963Z,7.58
2023-01-08T21:45:52.228Z,7.79
2023-01-08T21:50:57.141Z,7.74
2023-01-08T21:56:01.177Z,7.80
2023-01-08T22:01:10.126Z,7.60
2023-01-08T22:06:14.849Z,7.62
2023-01-08T22:11:17.923Z,7.34
2023-01-08T22:16:21.575Z,7.27
2023-01-08T22:21:26.341Z,7.10
2023-01-08T22:26:29.602Z,7.03
2023-01-08T22:31:33.157Z,6.98
2023-01-08T22:36:37.703Z,6.98
2023-01-08T22:41:42.377Z,6.83
2023-01-08T22:46:46.621Z,6.87
2023-01-08T22:51:52.680Z,6.83
2023-01-08T22:56:55.824Z,6.76
2023-01-08T23:01:59.263Z,6.89
2023-01-08T23:07:04.130Z,6.72
2023-01-08T23:12:07.714Z,6.82
2023-01-08T23:17:10.918Z,6.73
2023-01-08T23:22:15.699Z,6.81
2023-01-08T23:27:18.920Z,6.67
2023-01-08T23:32:22.159Z,6.97
2023-01-08T23:37:26.612Z,6.91
2023-01-08T23:42:30.061Z,6.84
2023-01-08T23:47:33.251Z,6.95
2023-01-08T23:52:37.732Z,6.89
2023-01-08T23:57:40.943Z,6.90
